Time;durP1;ratioP1;P1;durP2;ratioP2;P2;SDS_P1;SDS_P2;PMS_P1;PMS_P2;Temp;Humidity;BMP_temperature;BMP_pressure;BME280_temperature;BME280_humidity;BME280_pressure;Samples;Min_cycle;Max_cycle;Signal;HPM_P1;HPM_P2
2023/04/10 00:01:49;;;;;;;16.95;8.80;;;6.70;99.90;;;;;;5060183;28;20506;-85
2023/04/10 00:04:15;;;;;;;16.67;9.15;;;6.30;99.90;;;;;;5061545;28;20120;-85
2023/04/10 00:06:41;;;;;;;18.20;8.95;;;6.60;99.90;;;;;;5063300;28;20501;-86
2023/04/10 00:09:09;;;;;;;18.33;9.43;;;6.20;99.90;;;;;;5062171;28;20413;-84
2023/04/10 00:11:35;;;;;;;15.68;8.30;;;7.40;99.90;;;;;;5066563;28;20178;-83
2023/04/10 00:14:00;;;;;;;16.02;8.68;;;6.10;99.90;;;;;;5060136;28;20076;-83
2023/04/10 00:16:26;;;;;;;15.93;8.15;;;6.20;99.90;;;;;;5063284;28;20044;-83
2023/04/10 00:18:52;;;;;;;15.90;8.27;;;7.10;99.90;;;;;;5063486;28;20050;-83
2023/04/10 00:21:17;;;;;;;11.20;7.68;;;6.30;99.90;;;;;;5046372;28;20036;-84
2023/04/10 00:23:43;;;;;;;16.88;9.68;;;6.20;99.90;;;;;;5062860;28;20456;-83
2023/04/10 00:26:09;;;;;;;19.58;11.02;;;7.00;99.90;;;;;;5063125;28;20040;-83
2023/04/10 00:28:37;;;;;;;18.55;9.68;;;6.10;99.90;;;;;;5063535;28;20402;-83
2023/04/10 00:31:04;;;;;;;16.75;9.68;;;6.20;99.90;;;;;;5062015;28;20040;-83
2023/04/10 00:33:30;;;;;;;16.05;9.07;;;6.00;99.90;;;;;;5063611;28;20546;-83
2023/04/10 00:35:55;;;;;;;17.17;9.32;;;6.50;99.90;;;;;;5067091;28;20040;-83
2023/04/10 00:38:21;;;;;;;16.98;9.13;;;6.70;99.90;;;;;;5061377;28;20125;-83
2023/04/10 00:40:47;;;;;;;20.02;9.80;;;7.30;99.90;;;;;;5066689;28;20426;-84
2023/04/10 00:43:13;;;;;;;17.40;9.40;;;6.80;99.90;;;;;;5065277;28;20443;-83
2023/04/10 00:45:39;;;;;;;20.05;9.15;;;7.10;99.90;;;;;;5063762;28;20052;-83
2023/04/10 00:48:05;;;;;;;19.58;9.80;;;6.90;99.90;;;;;;5045073;28;20045;-83
2023/04/10 00:50:31;;;;;;;15.20;9.18;;;6.00;99.90;;;;;;5062988;28;20424;-83
2023/04/10 00:52:57;;;;;;;18.73;9.98;;;5.90;99.90;;;;;;5062503;28;20037;-83
2023/04/10 00:55:24;;;;;;;21.02;11.85;;;6.30;99.90;;;;;;5053466;28;20124;-82
2023/04/10 00:57:51;;;;;;;21.73;12.70;;;6.20;99.90;;;;;;5058769;28;20090;-82
2023/04/10 01:00:17;;;;;;;19.67;9.88;;;5.50;99.90;;;;;;5058639;28;20056;-83
2023/04/10 01:02:43;;;;;;;20.58;11.52;;;6.20;99.90;;;;;;5065256;28;20492;-82
2023/04/10 01:05:11;;;;;;;21.05;11.90;;;5.80;99.90;;;;;;5066031;28;20037;-83
2023/04/10 01:08:00;;;;;;;23.50;12.55;;;5.70;99.90;;;;;;5063523;28;20048;-83
2023/04/10 01:10:43;;;;;;;23.50;13.45;;;6.20;99.90;;;;;;5062529;28;20041;-83
2023/04/10 01:13:42;;;;;;;22.27;12.98;;;5.70;99.90;;;;;;5064844;28;20045;-83
2023/04/10 01:16:18;;;;;;;22.33;11.80;;;5.70;99.90;;;;;;5057523;28;20037;-83
2023/04/10 01:18:47;;;;;;;;;;;5.60;99.90;;;;;;5065035;28;20056;-82
2023/04/10 01:21:15;;;;;;;24.45;12.80;;;5.70;99.90;;;;;;5066000;28;19926;-83
2023/04/10 01:23:55;;;;;;;24.52;12.68;;;5.60;99.90;;;;;;5063049;28;20190;-84
2023/04/10 01:26:41;;;;;;;26.65;11.90;;;5.50;99.90;;;;;;5060123;28;20041;-85
2023/04/10 01:29:10;;;;;;;19.60;11.70;;;5.90;99.90;;;;;;5089297;28;20386;-83
2023/04/10 01:31:52;;;;;;;21.95;11.88;;;6.60;99.90;;;;;;5062394;28;20094;-82
2023/04/10 01:34:24;;;;;;;24.75;14.05;;;6.20;99.90;;;;;;5059356;28;20040;-82
2023/04/10 01:37:00;;;;;;;23.08;13.23;;;6.10;99.90;;;;;;5064353;28;20501;-82
2023/04/10 01:39:27;;;;;;;23.50;12.30;;;6.20;99.90;;;;;;5064221;28;20378;-83
2023/04/10 01:41:55;;;;;;;21.48;12.10;;;5.70;99.90;;;;;;5062541;28;20443;-83
2023/04/10 01:44:27;;;;;;;23.48;11.50;;;5.40;99.90;;;;;;5061712;28;20061;-82
2023/04/10 01:46:55;;;;;;;22.33;12.90;;;5.30;99.90;;;;;;5061614;28;20119;-83
2023/04/10 01:49:22;;;;;;;25.08;14.68;;;5.30;99.90;;;;;;5060021;28;20504;-83
2023/04/10 01:51:49;;;;;;;24.05;12.90;;;5.30;99.90;;;;;;5063695;28;20043;-83
2023/04/10 01:54:16;;;;;;;23.20;12.85;;;6.20;99.90;;;;;;5061105;28;20064;-82
2023/04/10 01:56:42;;;;;;;29.00;14.40;;;5.40;99.90;;;;;;5063727;28;20040;-83
2023/04/10 01:59:08;;;;;;;24.70;13.10;;;5.90;99.90;;;;;;5061612;28;20579;-84
2023/04/10 02:01:34;;;;;;;24.80;13.73;;;5.20;99.90;;;;;;5061866;28;20033;-83
2023/04/10 02:04:01;;;;;;;25.27;14.40;;;6.10;99.90;;;;;;5060095;28;20091;-84
2023/04/10 02:06:39;;;;;;;25.42;13.95;;;5.10;99.90;;;;;;5061518;28;20048;-83
2023/04/10 02:09:17;;;;;;;24.85;14.13;;;4.80;99.90;;;;;;5060138;28;20603;-83
2023/04/10 02:12:03;;;;;;;27.52;14.95;;;5.10;99.90;;;;;;5061334;28;20047;-82
2023/04/10 02:14:31;;;;;;;25.23;14.45;;;6.50;99.90;;;;;;5071713;28;20049;-84
2023/04/10 02:16:59;;;;;;;26.20;15.20;;;5.10;99.90;;;;;;5063044;28;20183;-82
2023/04/10 02:19:26;;;;;;;26.80;15.70;;;5.70;99.90;;;;;;5064811;28;20037;-83
2023/04/10 02:21:53;;;;;;;27.88;14.07;;;5.40;99.90;;;;;;5062569;28;20432;-85
2023/04/10 02:24:19;;;;;;;25.23;13.45;;;5.00;99.90;;;;;;5053540;28;20049;-82
2023/04/10 02:26:50;;;;;;;25.98;14.07;;;5.00;99.90;;;;;;5061364;28;20072;-83
2023/04/10 02:29:16;;;;;;;21.45;13.30;;;4.10;99.90;;;;;;5053846;28;20060;-83
2023/04/10 02:31:42;;;;;;;25.35;13.32;;;5.00;99.90;;;;;;5059692;28;20049;-83
2023/04/10 02:34:08;;;;;;;24.23;14.02;;;5.10;99.90;;;;;;5063474;28;20055;-82
2023/04/10 02:36:36;;;;;;;27.52;14.00;;;5.10;99.90;;;;;;5064555;28;20028;-82
2023/04/10 02:39:02;;;;;;;25.15;14.07;;;5.30;99.90;;;;;;5062400;28;20048;-84
2023/04/10 02:41:28;;;;;;;22.02;12.38;;;4.90;99.90;;;;;;5063058;28;20036;-83
2023/04/10 02:43:54;;;;;;;23.70;12.95;;;5.20;99.90;;;;;;5063739;28;20499;-83
2023/04/10 02:46:19;;;;;;;22.13;12.73;;;4.90;99.90;;;;;;5061439;28;20041;-83
2023/04/10 02:48:45;;;;;;;22.50;12.75;;;4.50;99.90;;;;;;5061011;28;20379;-83
2023/04/10 02:51:11;;;;;;;25.15;14.32;;;4.80;99.90;;;;;;5061430;28;20524;-83
2023/04/10 02:53:36;;;;;;;22.70;12.63;;;5.80;99.90;;;;;;5063210;28;20041;-83
2023/04/10 02:56:02;;;;;;;22.33;13.05;;;4.80;99.90;;;;;;5062189;28;20102;-83
2023/04/10 02:58:29;;;;;;;21.75;12.90;;;4.80;99.90;;;;;;5056921;28;20041;-83
2023/04/10 03:00:56;;;;;;;25.73;12.93;;;4.90;99.90;;;;;;5064115;28;20055;-83
2023/04/10 03:03:22;;;;;;;24.08;12.27;;;5.60;99.90;;;;;;5060672;28;20113;-82
2023/04/10 03:05:48;;;;;;;21.33;12.50;;;5.20;99.90;;;;;;5056662;28;20045;-82
2023/04/10 03:08:16;;;;;;;22.27;12.30;;;5.70;99.90;;;;;;5060234;28;20056;-84
2023/04/10 03:10:44;;;;;;;22.55;12.05;;;4.90;99.90;;;;;;5060624;28;20044;-81
2023/04/10 03:13:10;;;;;;;24.33;12.63;;;5.10;99.90;;;;;;5060031;28;20047;-81
2023/04/10 03:15:36;;;;;;;24.00;12.32;;;5.60;99.90;;;;;;5066389;28;20106;-81
2023/04/10 03:18:05;;;;;;;20.23;12.65;;;4.80;99.90;;;;;;5060204;28;20045;-82
2023/04/10 03:20:32;;;;;;;21.50;11.85;;;4.80;99.90;;;;;;5093809;28;20493;-81
2023/04/10 03:22:58;;;;;;;22.30;10.85;;;4.80;99.90;;;;;;5060450;28;20090;-82
2023/04/10 03:25:24;;;;;;;22.92;12.15;;;4.70;99.90;;;;;;5061570;28;20063;-81
2023/04/10 03:27:50;;;;;;;23.10;11.50;;;5.30;99.90;;;;;;5062768;28;20036;-81
2023/04/10 03:30:16;;;;;;;19.80;11.20;;;5.90;99.90;;;;;;5060588;28;20063;-82
2023/04/10 03:32:42;;;;;;;22.00;12.30;;;4.70;99.90;;;;;;5058668;28;20404;-80
2023/04/10 03:35:09;;;;;;;21.02;11.05;;;4.70;99.90;;;;;;5060132;28;20045;-81
2023/04/10 03:37:34;;;;;;;18.95;10.98;;;4.70;99.90;;;;;;5043392;28;20051;-80
2023/04/10 03:40:00;;;;;;;19.05;9.88;;;4.40;99.90;;;;;;5060208;28;20519;-81
2023/04/10 03:42:26;;;;;;;17.42;9.20;;;4.70;99.90;;;;;;5062156;28;20037;-80
2023/04/10 03:44:51;;;;;;;17.48;10.00;;;4.70;99.90;;;;;;5063914;28;20045;-81
2023/04/10 03:47:17;;;;;;;22.13;11.30;;;4.70;99.90;;;;;;5060720;28;20388;-81
2023/04/10 03:49:43;;;;;;;23.30;11.20;;;4.90;99.90;;;;;;5062779;28;20474;-81
2023/04/10 03:52:08;;;;;;;21.27;10.85;;;4.60;99.90;;;;;;5063957;28;20091;-81
2023/04/10 03:54:34;;;;;;;20.33;10.63;;;5.40;99.90;;;;;;5067382;28;20033;-81
2023/04/10 03:57:00;;;;;;;20.20;11.00;;;4.60;99.90;;;;;;5066238;28;20092;-81
2023/04/10 03:59:26;;;;;;;18.23;10.13;;;4.60;99.90;;;;;;5064874;28;20072;-81
2023/04/10 04:01:52;;;;;;;17.20;8.98;;;4.50;99.90;;;;;;5063831;28;20457;-81
2023/04/10 04:04:18;;;;;;;19.70;10.52;;;4.50;99.90;;;;;;5064316;28;20081;-81
2023/04/10 04:06:43;;;;;;;19.73;10.43;;;4.50;99.90;;;;;;5063373;28;20049;-80
2023/04/10 04:09:09;;;;;;;19.95;11.25;;;4.50;99.90;;;;;;5062394;28;20040;-81
2023/04/10 04:11:35;;;;;;;20.73;10.63;;;4.40;99.90;;;;;;5064531;28;20052;-81
2023/04/10 04:14:00;;;;;;;20.48;10.57;;;4.40;99.90;;;;;;5066807;28;20044;-80
2023/04/10 04:16:26;;;;;;;18.33;9.02;;;4.40;99.90;;;;;;5065740;28;20043;-82
2023/04/10 04:18:52;;;;;;;20.88;10.48;;;4.40;99.90;;;;;;5062201;28;20037;-80
2023/04/10 04:21:17;;;;;;;21.90;11.02;;;4.40;99.90;;;;;;5063657;28;20032;-81
2023/04/10 04:23:43;;;;;;;23.40;11.90;;;4.00;99.90;;;;;;5062394;28;20090;-80
2023/04/10 04:26:09;;;;;;;22.33;12.32;;;4.50;99.90;;;;;;5062504;28;20481;-80
2023/04/10 04:28:35;;;;;;;19.40;10.77;;;4.30;99.90;;;;;;5056899;28;20486;-82
2023/04/10 04:31:01;;;;;;;20.38;11.73;;;5.10;99.90;;;;;;5066494;28;20040;-81
2023/04/10 04:33:27;;;;;;;24.20;12.02;;;4.30;99.90;;;;;;5067228;28;20051;-81
2023/04/10 04:35:52;;;;;;;21.17;11.23;;;4.40;99.90;;;;;;5054506;28;20450;-81
2023/04/10 04:38:19;;;;;;;19.50;10.73;;;5.40;99.90;;;;;;5059839;28;20458;-82
2023/04/10 04:40:45;;;;;;;22.27;11.45;;;4.50;99.90;;;;;;5065014;28;20049;-82
2023/04/10 04:43:11;;;;;;;21.50;11.85;;;4.50;99.90;;;;;;5065903;28;20055;-82
2023/04/10 04:45:36;;;;;;;17.67;9.88;;;4.60;99.90;;;;;;5064867;28;20041;-82
2023/04/10 04:48:02;;;;;;;20.27;11.02;;;5.40;99.90;;;;;;5070438;28;20067;-83
2023/04/10 04:50:28;;;;;;;19.58;10.45;;;4.70;99.90;;;;;;5037682;28;20140;-85
2023/04/10 04:52:53;;;;;;;21.67;12.10;;;4.90;99.90;;;;;;5063473;28;20049;-84
2023/04/10 04:55:19;;;;;;;20.38;11.48;;;4.80;99.90;;;;;;5061388;28;20045;-83
2023/04/10 04:57:44;;;;;;;20.85;10.82;;;5.50;99.90;;;;;;5053639;28;20049;-84
2023/04/10 05:00:10;;;;;;;22.50;11.25;;;4.80;99.90;;;;;;5061851;28;20415;-83
2023/04/10 05:02:36;;;;;;;21.17;11.60;;;4.80;99.90;;;;;;5063225;28;20068;-83
2023/04/10 05:05:02;;;;;;;20.15;11.48;;;4.90;99.90;;;;;;5065936;28;20045;-84
2023/04/10 05:07:28;;;;;;;25.05;13.00;;;4.90;99.90;;;;;;5059187;28;20533;-83
2023/04/10 05:09:54;;;;;;;21.55;11.48;;;4.90;99.90;;;;;;5064668;28;20410;-85
2023/04/10 05:12:19;;;;;;;21.98;11.43;;;5.40;99.90;;;;;;5060121;28;20033;-82
2023/04/10 05:14:45;;;;;;;22.85;12.90;;;5.60;99.90;;;;;;5061970;28;20102;-82
2023/04/10 05:17:11;;;;;;;25.80;14.30;;;5.00;99.90;;;;;;5062898;28;20464;-86
2023/04/10 05:19:36;;;;;;;28.30;15.13;;;5.00;99.90;;;;;;5062748;28;20052;-84
2023/04/10 05:22:02;;;;;;;25.55;13.70;;;5.10;99.90;;;;;;5062896;28;20132;-83
2023/04/10 05:24:28;;;;;;;32.20;17.15;;;5.20;99.90;;;;;;5066962;28;20044;-83
2023/04/10 05:26:53;;;;;;;26.98;14.93;;;6.10;99.90;;;;;;5062335;28;20489;-82
2023/04/10 05:29:19;;;;;;;31.02;15.40;;;6.10;99.90;;;;;;5060925;28;20079;-84
2023/04/10 05:31:45;;;;;;;28.98;16.42;;;5.40;99.90;;;;;;5061015;28;20040;-83
2023/04/10 05:34:11;;;;;;;32.28;16.65;;;5.40;99.90;;;;;;5056384;28;20049;-82
2023/04/10 05:36:36;;;;;;;28.98;16.00;;;4.90;99.90;;;;;;5057746;28;20072;-82
2023/04/10 05:39:02;;;;;;;28.67;16.45;;;5.90;99.90;;;;;;5046102;28;20509;-82
2023/04/10 05:41:27;;;;;;;32.50;17.70;;;5.60;99.90;;;;;;5064428;28;20037;-83
2023/04/10 05:43:53;;;;;;;32.95;17.42;;;5.80;99.90;;;;;;5062318;28;20041;-83
2023/04/10 05:46:19;;;;;;;31.83;16.13;;;6.50;99.90;;;;;;5061949;28;20044;-84
2023/04/10 05:48:44;;;;;;;26.35;14.45;;;6.80;99.90;;;;;;5061944;28;20371;-82
2023/04/10 05:51:10;;;;;;;28.67;15.20;;;6.00;99.90;;;;;;5060547;28;20044;-82
2023/04/10 05:53:36;;;;;;;27.10;15.98;;;5.40;99.90;;;;;;5060264;28;20049;-83
2023/04/10 05:56:01;;;;;;;28.88;15.60;;;6.90;99.90;;;;;;5061689;28;20459;-83
2023/04/10 05:58:27;;;;;;;28.77;15.43;;;5.80;99.90;;;;;;5059170;28;20037;-83
2023/04/10 06:00:53;;;;;;;28.27;15.32;;;6.00;99.90;;;;;;5061718;28;20099;-83
2023/04/10 06:03:19;;;;;;;27.60;14.68;;;6.20;99.90;;;;;;5065135;28;20094;-84
2023/04/10 06:05:45;;;;;;;24.40;13.60;;;6.20;99.90;;;;;;5063609;28;20036;-83
2023/04/10 06:08:11;;;;;;;29.10;16.13;;;6.30;99.90;;;;;;5062183;28;20639;-83
2023/04/10 06:10:37;;;;;;;30.83;16.38;;;6.40;99.90;;;;;;5060661;28;20107;-83
2023/04/10 06:13:02;;;;;;;30.17;15.35;;;6.40;99.90;;;;;;5059918;28;20127;-82
2023/04/10 06:15:28;;;;;;;30.85;17.35;;;6.80;99.90;;;;;;5065163;28;20038;-84
2023/04/10 06:17:54;;;;;;;26.05;14.25;;;6.50;99.90;;;;;;5062966;28;20072;-84
2023/04/10 06:20:20;;;;;;;32.83;17.77;;;7.40;99.90;;;;;;5061502;28;20040;-85
2023/04/10 06:22:46;;;;;;;30.90;18.45;;;6.70;99.90;;;;;;5062117;28;20402;-84
2023/04/10 06:25:12;;;;;;;33.75;17.95;;;6.80;99.90;;;;;;5059831;28;20036;-84
2023/04/10 06:27:37;;;;;;;28.30;16.75;;;8.10;99.90;;;;;;5057297;28;20401;-86
2023/04/10 06:30:04;;;;;;;31.63;19.45;;;7.80;99.90;;;;;;5061178;28;20047;-84
2023/04/10 06:32:30;;;;;;;37.72;20.30;;;7.10;99.90;;;;;;5051563;28;20037;-84
2023/04/10 06:34:56;;;;;;;35.20;19.60;;;7.20;99.90;;;;;;5093829;28;20094;-84
2023/04/10 06:37:32;;;;;;;34.38;19.02;;;8.20;99.90;;;;;;5090457;28;20041;-84
2023/04/10 06:40:06;;;;;;;32.97;18.85;;;7.50;99.90;;;;;;5060490;28;20401;-83
2023/04/10 06:42:32;;;;;;;30.65;17.85;;;7.50;99.90;;;;;;5053850;28;20408;-84
2023/04/10 06:44:57;;;;;;;34.78;18.33;;;8.00;99.90;;;;;;5061120;28;20041;-85
2023/04/10 06:47:23;;;;;;;29.88;16.00;;;8.20;99.90;;;;;;5062446;28;20045;-83
2023/04/10 06:49:49;;;;;;;31.83;17.10;;;7.60;99.90;;;;;;5063459;28;20481;-85
2023/04/10 06:52:15;;;;;;;32.83;17.90;;;8.20;99.90;;;;;;5062996;28;20059;-84
2023/04/10 06:54:41;;;;;;;25.40;15.55;;;7.70;99.90;;;;;;5060284;28;20080;-80
2023/04/10 06:57:07;;;;;;;28.48;16.60;;;7.80;99.90;;;;;;5053043;28;20072;-81
2023/04/10 06:59:34;;;;;;;30.70;18.50;;;7.90;99.90;;;;;;5055675;28;20044;-80
2023/04/10 07:02:03;;;;;;;32.22;19.45;;;8.20;99.90;;;;;;5064379;28;20033;-83
2023/04/10 07:04:29;;;;;;;35.65;18.48;;;8.20;99.90;;;;;;5062344;28;20032;-90
2023/04/10 07:06:55;;;;;;;35.22;19.70;;;8.50;99.90;;;;;;5056892;28;20036;-81
2023/04/10 07:09:21;;;;;;;35.80;19.45;;;8.50;99.90;;;;;;5059971;28;20118;-85
2023/04/10 07:11:47;;;;;;;32.63;19.52;;;9.30;99.90;;;;;;5064887;28;20090;-86
2023/04/10 07:14:12;;;;;;;34.42;19.73;;;8.90;99.90;;;;;;5063100;28;20048;-80
2023/04/10 07:16:38;;;;;;;33.53;18.50;;;8.70;99.90;;;;;;5055742;28;20492;-82
2023/04/10 07:19:03;;;;;;;38.10;20.20;;;8.80;99.90;;;;;;5055344;28;20056;-81
2023/04/10 07:21:31;;;;;;;32.30;18.23;;;9.10;99.90;;;;;;5051793;28;20037;-82
2023/04/10 07:23:57;;;;;;;32.22;17.40;;;8.70;99.90;;;;;;5047957;28;20040;-84
2023/04/10 07:26:23;;;;;;;33.85;18.55;;;8.80;99.90;;;;;;5060757;28;20056;-81
2023/04/10 07:28:48;;;;;;;33.40;18.90;;;8.90;99.90;;;;;;5062226;28;20048;-81
2023/04/10 07:31:14;;;;;;;37.67;21.20;;;9.30;99.90;;;;;;5063813;28;20048;-82
2023/04/10 07:33:40;;;;;;;35.10;19.85;;;9.20;99.90;;;;;;5061767;28;20054;-82
2023/04/10 07:36:06;;;;;;;32.88;18.90;;;9.50;99.90;;;;;;5052485;28;20029;-82
2023/04/10 07:38:32;;;;;;;38.08;20.73;;;9.60;99.90;;;;;;5059514;28;20056;-85
2023/04/10 07:40:58;;;;;;;36.60;20.33;;;9.70;99.90;;;;;;5061661;28;20045;-83
2023/04/10 07:43:24;;;;;;;37.25;22.20;;;10.10;99.90;;;;;;5063356;28;20047;-82
2023/04/10 07:45:50;;;;;;;36.25;20.48;;;10.00;99.90;;;;;;5062566;28;20106;-82
2023/04/10 07:48:16;;;;;;;35.03;20.27;;;10.20;99.90;;;;;;5058938;28;20037;-82
2023/04/10 07:50:42;;;;;;;41.25;21.42;;;10.10;99.90;;;;;;5060070;28;20041;-83
2023/04/10 07:53:07;;;;;;;35.63;20.95;;;10.20;99.90;;;;;;5059689;28;20072;-84
2023/04/10 07:55:41;;;;;;;38.83;21.73;;;10.30;99.90;;;;;;5060374;28;20521;-84
2023/04/10 07:58:07;;;;;;;39.83;21.65;;;10.40;99.90;;;;;;5060155;28;20048;-84
2023/04/10 08:00:33;;;;;;;32.55;18.60;;;10.60;99.90;;;;;;5060318;28;20028;-83
2023/04/10 08:02:59;;;;;;;39.58;22.20;;;10.80;99.90;;;;;;5053596;28;20080;-85
2023/04/10 08:05:25;;;;;;;36.17;19.80;;;11.00;99.90;;;;;;5053035;28;20049;-87
2023/04/10 08:07:51;;;;;;;37.30;21.23;;;11.30;99.90;;;;;;5052680;28;20501;-83
2023/04/10 08:10:16;;;;;;;35.97;21.00;;;11.40;99.90;;;;;;5053135;28;20171;-83
2023/04/10 08:12:42;;;;;;;35.80;20.08;;;11.60;99.90;;;;;;5052948;28;20405;-84
2023/04/10 08:15:08;;;;;;;32.97;19.02;;;11.60;99.90;;;;;;5052680;28;20479;-85
2023/04/10 08:17:34;;;;;;;35.50;19.73;;;11.70;99.90;;;;;;5052507;28;20051;-83
2023/04/10 08:20:00;;;;;;;30.33;17.35;;;11.80;99.90;;;;;;5052509;28;20135;-83
2023/04/10 08:22:25;;;;;;;30.63;17.92;;;11.90;99.90;;;;;;5051363;28;20366;-83
2023/04/10 08:24:51;;;;;;;30.08;16.92;;;12.00;99.90;;;;;;5052695;28;20045;-84
2023/04/10 08:27:17;;;;;;;32.65;18.17;;;12.00;99.90;;;;;;5051504;28;20049;-84
2023/04/10 08:29:43;;;;;;;28.63;17.42;;;12.00;99.90;;;;;;5052695;28;20045;-83
2023/04/10 08:32:08;;;;;;;28.80;17.23;;;12.10;99.90;;;;;;5052566;28;20049;-85
2023/04/10 08:34:34;;;;;;;31.33;18.52;;;12.10;99.90;;;;;;5052941;28;20041;-85
2023/04/10 08:37:04;;;;;;;30.27;17.58;;;12.30;99.90;;;;;;5056182;28;20084;-84
2023/04/10 08:39:29;;;;;;;25.65;15.63;;;12.40;99.90;;;;;;5056055;28;20394;-84
2023/04/10 08:41:55;;;;;;;28.95;15.98;;;12.60;99.90;;;;;;5054757;28;20045;-84
2023/04/10 08:44:21;;;;;;;27.27;14.77;;;12.70;99.90;;;;;;5055865;28;20061;-83
2023/04/10 08:46:49;;;;;;;27.63;15.15;;;12.90;99.90;;;;;;5054998;28;20124;-84
2023/04/10 08:49:22;;;;;;;26.13;15.38;;;13.10;99.90;;;;;;5055731;28;20175;-83
2023/04/10 08:51:58;;;;;;;24.75;14.13;;;13.20;99.90;;;;;;5054565;28;20078;-83
2023/04/10 08:54:37;;;;;;;31.70;15.75;;;13.40;99.90;;;;;;5055687;28;20382;-83
2023/04/10 08:57:05;;;;;;;31.58;16.42;;;13.60;99.90;;;;;;5055752;28;20101;-86
2023/04/10 08:59:31;;;;;;;24.75;14.77;;;13.60;99.90;;;;;;5054734;28;20049;-83
2023/04/10 09:01:58;;;;;;;26.33;14.70;;;13.60;99.90;;;;;;5055449;28;20482;-84
2023/04/10 09:04:25;;;;;;;22.55;12.93;;;13.70;99.90;;;;;;5055768;28;20041;-84
2023/04/10 09:06:52;;;;;;;22.48;13.48;;;13.90;99.90;;;;;;5055468;28;20053;-83
2023/04/10 09:09:18;;;;;;;26.40;14.65;;;14.00;99.90;;;;;;5055403;28;20045;-86
2023/04/10 09:11:55;;;;;;;21.70;12.15;;;14.20;99.90;;;;;;5055415;28;20076;-85
2023/04/10 09:14:28;;;;;;;23.58;11.90;;;14.30;99.90;;;;;;5055139;28;20056;-84
2023/04/10 09:17:14;;;;;;;24.10;13.27;;;14.40;99.90;;;;;;5053769;28;20081;-83
2023/04/10 09:19:40;;;;;;;20.52;12.25;;;14.30;99.90;;;;;;5053669;28;20051;-84
2023/04/10 09:22:06;;;;;;;20.92;11.93;;;14.40;99.90;;;;;;5055180;28;20115;-85
2023/04/10 09:24:38;;;;;;;17.40;10.85;;;14.40;99.90;;;;;;5054049;28;20118;-83
2023/04/10 09:27:05;;;;;;;24.95;12.07;;;14.50;99.90;;;;;;5053864;28;20052;-84
2023/04/10 09:29:48;;;;;;;20.85;12.15;;;14.70;99.90;;;;;;5054929;28;20567;-83
2023/04/10 09:32:43;;;;;;;20.52;10.48;;;14.90;99.90;;;;;;5054794;28;20122;-84
2023/04/10 09:35:14;;;;;;;18.52;11.57;;;15.00;99.90;;;;;;5053731;28;20413;-85
2023/04/10 09:37:41;;;;;;;16.10;10.10;;;15.10;99.90;;;;;;5055122;28;20052;-87
2023/04/10 09:40:23;;;;;;;18.52;10.52;;;15.10;99.90;;;;;;5054956;28;20045;-84
2023/04/10 09:42:48;;;;;;;17.98;10.73;;;15.00;99.90;;;;;;5054952;28;20045;-87
2023/04/10 09:45:18;;;;;;;19.20;10.60;;;15.00;99.90;;;;;;5054873;28;20540;-85
2023/04/10 09:48:01;;;;;;;15.30;9.27;;;15.10;99.90;;;;;;5054182;28;20049;-83
2023/04/10 09:50:34;;;;;;;15.10;9.02;;;14.70;99.90;;;;;;5054823;28;20044;-86
2023/04/10 09:53:00;;;;;;;15.90;9.48;;;15.20;99.90;;;;;;5053759;28;20041;-88
2023/04/10 09:55:32;;;;;;;13.95;8.32;;;15.40;99.90;;;;;;5053213;28;20056;-86
2023/04/10 09:57:58;;;;;;;14.40;8.65;;;15.50;99.90;;;;;;5054590;28;20045;-84
2023/04/10 10:00:25;;;;;;;16.13;9.43;;;15.60;99.90;;;;;;5054165;28;20048;-84
2023/04/10 10:02:52;;;;;;;13.45;8.25;;;15.70;99.90;;;;;;5053506;28;20041;-86
2023/04/10 10:05:19;;;;;;;14.95;8.77;;;15.80;99.90;;;;;;5054573;28;20053;-84
2023/04/10 10:07:46;;;;;;;14.48;9.45;;;15.90;99.90;;;;;;5054273;28;20053;-84
2023/04/10 10:10:13;;;;;;;15.55;10.00;;;15.90;99.90;;;;;;5053000;28;20041;-84
2023/04/10 10:12:58;;;;;;;16.25;9.13;;;16.10;99.90;;;;;;5054202;28;20124;-85
2023/04/10 10:15:37;;;;;;;17.70;9.63;;;16.10;99.90;;;;;;5054283;28;20045;-84
2023/04/10 10:18:15;;;;;;;251.30;122.47;;;16.20;99.90;;;;;;5052794;28;20127;-83
2023/04/10 10:20:44;;;;;;;16.08;9.05;;;16.30;99.90;;;;;;5052805;28;20433;-84
2023/04/10 10:23:10;;;;;;;14.30;8.70;;;16.40;99.90;;;;;;5053938;28;20064;-84
2023/04/10 10:25:36;;;;;;;14.02;7.75;;;16.60;99.90;;;;;;5053728;28;20053;-84
2023/04/10 10:28:03;;;;;;;14.23;8.68;;;16.70;99.90;;;;;;5054104;28;20039;-85
2023/04/10 10:30:32;;;;;;;16.30;9.18;;;16.80;99.90;;;;;;5053821;28;20091;-84
2023/04/10 10:33:01;;;;;;;15.00;9.27;;;16.80;99.90;;;;;;5053932;28;20037;-85
2023/04/10 10:35:30;;;;;;;13.55;8.20;;;16.80;99.90;;;;;;5052557;28;20110;-83
2023/04/10 10:37:59;;;;;;;13.95;8.10;;;16.80;99.90;;;;;;5052329;28;20057;-84
2023/04/10 10:40:49;;;;;;;109.28;98.15;;;16.80;99.90;;;;;;5053690;28;20096;-84
2023/04/10 10:43:47;;;;;;;12.48;7.35;;;16.80;99.50;;;;;;5053588;28;20102;-85
2023/04/10 10:46:34;;;;;;;14.55;8.50;;;16.80;99.30;;;;;;5053189;28;20151;-84
2023/04/10 10:49:01;;;;;;;14.63;8.20;;;16.70;99.00;;;;;;5053768;28;20076;-83
2023/04/10 10:51:45;;;;;;;11.27;6.95;;;16.60;97.90;;;;;;5052618;28;20049;-84
2023/04/10 10:54:46;;;;;;;14.73;8.88;;;16.50;99.00;;;;;;5052926;28;20056;-84
2023/04/10 10:57:45;;;;;;;11.80;8.13;;;16.40;99.50;;;;;;5031341;28;20463;-85
2023/04/10 11:00:11;;;;;;;11.27;6.55;;;16.40;99.60;;;;;;4936808;29;20424;-85
2023/04/10 11:02:36;;;;;;;11.70;7.13;;;16.30;97.50;;;;;;4937051;29;20531;-83
2023/04/10 11:05:02;;;;;;;10.93;6.60;;;16.20;98.70;;;;;;4953464;29;20063;-84
2023/04/10 11:08:00;;;;;;;11.43;6.57;;;16.30;99.30;;;;;;4936983;29;20209;-84
2023/04/10 11:11:04;;;;;;;8.38;5.63;;;16.30;99.60;;;;;;4937432;29;20452;-85
2023/04/10 11:13:31;;;;;;;10.52;6.05;;;16.30;99.50;;;;;;4937451;29;20091;-84
2023/04/10 11:15:58;;;;;;;8.57;5.20;;;16.30;98.60;;;;;;4937116;29;20046;-85
2023/04/10 11:18:45;;;;;;;6.63;4.60;;;16.30;98.70;;;;;;4952938;29;20595;-83
2023/04/10 11:21:16;;;;;;;8.27;5.30;;;16.40;99.00;;;;;;4937377;29;20077;-84
2023/04/10 11:24:02;;;;;;;8.13;4.88;;;16.30;98.90;;;;;;4936822;29;20055;-83
2023/04/10 11:26:34;;;;;;;7.13;4.28;;;16.40;99.00;;;;;;4952804;29;20544;-87
2023/04/10 11:29:02;;;;;;;8.07;4.22;;;16.40;99.10;;;;;;4952999;29;20058;-83
2023/04/10 11:31:28;;;;;;;8.63;4.75;;;16.40;98.20;;;;;;4976671;28;20085;-84
2023/04/10 11:33:57;;;;;;;6.95;4.50;;;16.40;97.60;;;;;;4975284;28;20046;-85
2023/04/10 11:36:23;;;;;;;7.18;3.75;;;16.30;98.00;;;;;;5005219;28;20394;-83
2023/04/10 11:39:09;;;;;;;7.25;4.57;;;16.30;97.90;;;;;;5052844;28;20047;-83
2023/04/10 11:41:36;;;;;;;6.63;3.50;;;16.30;97.00;;;;;;5053129;28;20120;-84
2023/04/10 11:44:09;;;;;;;5.63;3.78;;;16.30;97.50;;;;;;5052998;28;20433;-83
2023/04/10 11:46:45;;;;;;;6.30;3.75;;;16.30;97.90;;;;;;5053151;28;20517;-82
2023/04/10 11:49:11;;;;;;;4.60;3.25;;;16.30;97.70;;;;;;5052928;28;20048;-85
2023/04/10 11:51:38;;;;;;;6.18;3.67;;;16.20;97.40;;;;;;5052809;28;20033;-83
2023/04/10 11:54:10;;;;;;;6.97;4.57;;;16.20;98.20;;;;;;5051443;28;20400;-83
2023/04/10 11:56:37;;;;;;;6.78;3.67;;;16.20;97.20;;;;;;5052085;28;20049;-83
2023/04/10 11:59:08;;;;;;;5.45;3.25;;;16.10;97.30;;;;;;5051541;28;20460;-83
2023/04/10 12:01:34;;;;;;;5.50;3.60;;;16.20;98.40;;;;;;5052875;28;20049;-84
2023/04/10 12:04:00;;;;;;;5.60;2.88;;;16.20;98.30;;;;;;5053236;28;20056;-84
2023/04/10 12:06:26;;;;;;;5.05;2.92;;;16.30;98.30;;;;;;5052770;28;20049;-83
2023/04/10 12:08:53;;;;;;;6.20;2.90;;;16.40;98.90;;;;;;5052515;28;20096;-84
2023/04/10 12:11:21;;;;;;;4.20;2.45;;;16.50;98.50;;;;;;5056138;28;20472;-84
2023/04/10 12:13:50;;;;;;;5.10;2.30;;;16.60;99.60;;;;;;5055218;28;20128;-83
2023/04/10 12:16:16;;;;;;;5.38;3.40;;;16.80;99.40;;;;;;5056660;28;20049;-85
2023/04/10 12:18:46;;;;;;;5.07;2.78;;;16.90;98.40;;;;;;5056552;28;20668;-85
2023/04/10 12:21:12;;;;;;;4.20;2.20;;;17.10;98.30;;;;;;5054926;28;20049;-83
2023/04/10 12:23:39;;;;;;;4.75;3.17;;;17.10;98.10;;;;;;5056478;28;20097;-85
2023/04/10 12:26:10;;;;;;;3.85;2.47;;;17.30;97.60;;;;;;5056583;28;20041;-84
2023/04/10 12:28:37;;;;;;;3.45;1.95;;;17.50;97.10;;;;;;5056822;28;20088;-85
2023/04/10 12:31:03;;;;;;;3.88;2.30;;;17.60;96.70;;;;;;5056603;28;20563;-84
2023/04/10 12:33:29;;;;;;;2.53;1.60;;;17.70;96.30;;;;;;5056229;28;20051;-84
2023/04/10 12:35:55;;;;;;;3.67;2.08;;;17.90;96.90;;;;;;5055986;28;20490;-88
2023/04/10 12:38:41;;;;;;;2.72;1.90;;;17.90;96.70;;;;;;5056173;28;20111;-87
2023/04/10 12:41:10;;;;;;;3.92;2.03;;;17.90;97.10;;;;;;5056210;28;20045;-84
2023/04/10 12:43:40;;;;;;;2.42;1.60;;;17.90;96.60;;;;;;5056118;28;20138;-84
2023/04/10 12:46:09;;;;;;;4.75;2.15;;;17.80;94.50;;;;;;5055826;28;20041;-87